sensor_id;sensor_type;location;lat;lon;timestamp;P1;durP1;ratioP1;P2;durP2;ratioP2
26512;SDS011;14186;53.822;10.152;2022-11-15T00:04:09;81.47;;;31.05;;
26512;SDS011;14186;53.822;10.152;2022-11-15T00:09:11;79.65;;;30.02;;
26512;SDS011;14186;53.822;10.152;2022-11-15T00:14:11;79.57;;;28.45;;
26512;SDS011;14186;53.822;10.152;2022-11-15T00:19:11;81.28;;;30.55;;
26512;SDS011;14186;53.822;10.152;2022-11-15T00:24:13;80.40;;;31.15;;
26512;SDS011;14186;53.822;10.152;2022-11-15T00:29:13;87.18;;;32.25;;
26512;SDS011;14186;53.822;10.152;2022-11-15T00:34:13;82.85;;;31.55;;
26512;SDS011;14186;53.822;10.152;2022-11-15T00:39:15;80.50;;;29.20;;
26512;SDS011;14186;53.822;10.152;2022-11-15T00:44:15;84.13;;;29.83;;
26512;SDS011;14186;53.822;10.152;2022-11-15T00:49:15;86.10;;;31.85;;
26512;SDS011;14186;53.822;10.152;2022-11-15T00:54:17;83.20;;;30.60;;
26512;SDS011;14186;53.822;10.152;2022-11-15T00:59:17;81.43;;;30.00;;
26512;SDS011;14186;53.822;10.152;2022-11-15T01:04:17;78.90;;;30.15;;
26512;SDS011;14186;53.822;10.152;2022-11-15T01:09:18;81.47;;;30.30;;
26512;SDS011;14186;53.822;10.152;2022-11-15T01:14:19;82.40;;;30.60;;
26512;SDS011;14186;53.822;10.152;2022-11-15T01:19:19;79.22;;;29.98;;
26512;SDS011;14186;53.822;10.152;2022-11-15T01:24:20;82.50;;;29.38;;
26512;SDS011;14186;53.822;10.152;2022-11-15T01:29:21;86.13;;;31.65;;
26512;SDS011;14186;53.822;10.152;2022-11-15T01:34:21;78.35;;;31.02;;
26512;SDS011;14186;53.822;10.152;2022-11-15T01:39:22;79.85;;;30.02;;
26512;SDS011;14186;53.822;10.152;2022-11-15T01:44:31;87.75;;;29.23;;
26512;SDS011;14186;53.822;10.152;2022-11-15T01:49:32;74.05;;;27.42;;
26512;SDS011;14186;53.822;10.152;2022-11-15T01:54:34;77.88;;;27.95;;
26512;SDS011;14186;53.822;10.152;2022-11-15T01:59:35;67.25;;;27.27;;
26512;SDS011;14186;53.822;10.152;2022-11-15T02:04:36;71.43;;;28.05;;
26512;SDS011;14186;53.822;10.152;2022-11-15T02:09:39;73.28;;;28.33;;
26512;SDS011;14186;53.822;10.152;2022-11-15T02:14:39;71.88;;;27.38;;
26512;SDS011;14186;53.822;10.152;2022-11-15T02:19:49;70.15;;;27.10;;
26512;SDS011;14186;53.822;10.152;2022-11-15T02:25:05;67.95;;;27.33;;
26512;SDS011;14186;53.822;10.152;2022-11-15T02:30:21;79.25;;;26.33;;
26512;SDS011;14186;53.822;10.152;2022-11-15T02:35:23;72.30;;;27.02;;
26512;SDS011;14186;53.822;10.152;2022-11-15T02:40:31;60.22;;;25.42;;
26512;SDS011;14186;53.822;10.152;2022-11-15T02:45:37;64.70;;;24.10;;
26512;SDS011;14186;53.822;10.152;2022-11-15T02:50:39;73.30;;;25.85;;
26512;SDS011;14186;53.822;10.152;2022-11-15T02:55:40;66.53;;;25.90;;
26512;SDS011;14186;53.822;10.152;2022-11-15T03:00:48;67.13;;;25.83;;
26512;SDS011;14186;53.822;10.152;2022-11-15T03:05:53;69.45;;;26.02;;
26512;SDS011;14186;53.822;10.152;2022-11-15T03:10:57;69.57;;;25.50;;
26512;SDS011;14186;53.822;10.152;2022-11-15T03:21:03;63.00;;;23.95;;
26512;SDS011;14186;53.822;10.152;2022-11-15T03:26:05;69.78;;;25.10;;
26512;SDS011;14186;53.822;10.152;2022-11-15T03:31:07;66.40;;;25.00;;
26512;SDS011;14186;53.822;10.152;2022-11-15T03:36:10;80.43;;;26.77;;
26512;SDS011;14186;53.822;10.152;2022-11-15T03:41:12;70.15;;;24.88;;
26512;SDS011;14186;53.822;10.152;2022-11-15T03:46:16;68.63;;;26.55;;
26512;SDS011;14186;53.822;10.152;2022-11-15T03:51:19;71.30;;;26.02;;
26512;SDS011;14186;53.822;10.152;2022-11-15T03:56:19;84.72;;;26.67;;
26512;SDS011;14186;53.822;10.152;2022-11-15T04:01:19;73.78;;;29.42;;
26512;SDS011;14186;53.822;10.152;2022-11-15T04:06:21;81.70;;;26.63;;
26512;SDS011;14186;53.822;10.152;2022-11-15T04:11:21;76.85;;;27.00;;
26512;SDS011;14186;53.822;10.152;2022-11-15T04:16:21;75.65;;;26.08;;
26512;SDS011;14186;53.822;10.152;2022-11-15T04:21:23;74.50;;;27.00;;
26512;SDS011;14186;53.822;10.152;2022-11-15T04:26:23;87.10;;;27.95;;
26512;SDS011;14186;53.822;10.152;2022-11-15T04:31:23;70.53;;;26.00;;
26512;SDS011;14186;53.822;10.152;2022-11-15T04:36:25;86.30;;;26.45;;
26512;SDS011;14186;53.822;10.152;2022-11-15T04:41:25;68.78;;;25.60;;
26512;SDS011;14186;53.822;10.152;2022-11-15T04:46:25;76.40;;;26.10;;
26512;SDS011;14186;53.822;10.152;2022-11-15T04:51:27;75.55;;;25.92;;
26512;SDS011;14186;53.822;10.152;2022-11-15T04:56:27;75.70;;;26.48;;
26512;SDS011;14186;53.822;10.152;2022-11-15T05:01:27;80.65;;;26.80;;
26512;SDS011;14186;53.822;10.152;2022-11-15T05:06:29;76.72;;;27.27;;
26512;SDS011;14186;53.822;10.152;2022-11-15T05:11:29;84.57;;;28.25;;
26512;SDS011;14186;53.822;10.152;2022-11-15T05:16:29;75.40;;;27.67;;
26512;SDS011;14186;53.822;10.152;2022-11-15T05:21:31;92.43;;;29.55;;
26512;SDS011;14186;53.822;10.152;2022-11-15T05:26:31;87.25;;;28.17;;
26512;SDS011;14186;53.822;10.152;2022-11-15T05:31:31;78.38;;;26.35;;
26512;SDS011;14186;53.822;10.152;2022-11-15T05:36:34;78.63;;;26.17;;
26512;SDS011;14186;53.822;10.152;2022-11-15T05:41:36;69.57;;;24.40;;
26512;SDS011;14186;53.822;10.152;2022-11-15T05:46:37;75.75;;;26.75;;
26512;SDS011;14186;53.822;10.152;2022-11-15T05:51:39;77.60;;;26.50;;
26512;SDS011;14186;53.822;10.152;2022-11-15T05:56:39;81.50;;;27.50;;
26512;SDS011;14186;53.822;10.152;2022-11-15T06:01:39;71.07;;;27.13;;
26512;SDS011;14186;53.822;10.152;2022-11-15T06:06:41;72.05;;;27.33;;
26512;SDS011;14186;53.822;10.152;2022-11-15T06:11:41;77.65;;;28.17;;
26512;SDS011;14186;53.822;10.152;2022-11-15T06:16:42;80.25;;;28.67;;
26512;SDS011;14186;53.822;10.152;2022-11-15T06:21:43;79.38;;;30.73;;
26512;SDS011;14186;53.822;10.152;2022-11-15T06:26:43;75.90;;;28.52;;
26512;SDS011;14186;53.822;10.152;2022-11-15T06:31:43;74.53;;;28.27;;
26512;SDS011;14186;53.822;10.152;2022-11-15T06:36:45;73.80;;;28.73;;
26512;SDS011;14186;53.822;10.152;2022-11-15T06:41:45;75.88;;;29.42;;
26512;SDS011;14186;53.822;10.152;2022-11-15T06:46:45;70.40;;;28.73;;
26512;SDS011;14186;53.822;10.152;2022-11-15T06:51:47;67.20;;;27.77;;
26512;SDS011;14186;53.822;10.152;2022-11-15T06:56:47;66.85;;;26.77;;
26512;SDS011;14186;53.822;10.152;2022-11-15T07:01:48;64.53;;;26.33;;
26512;SDS011;14186;53.822;10.152;2022-11-15T07:06:50;65.05;;;25.45;;
26512;SDS011;14186;53.822;10.152;2022-11-15T07:11:50;70.25;;;27.50;;
26512;SDS011;14186;53.822;10.152;2022-11-15T07:16:50;62.92;;;25.35;;
26512;SDS011;14186;53.822;10.152;2022-11-15T07:21:52;59.08;;;26.42;;
26512;SDS011;14186;53.822;10.152;2022-11-15T07:26:52;58.20;;;24.70;;
26512;SDS011;14186;53.822;10.152;2022-11-15T07:31:52;53.85;;;24.95;;
26512;SDS011;14186;53.822;10.152;2022-11-15T07:36:54;54.97;;;23.33;;
26512;SDS011;14186;53.822;10.152;2022-11-15T07:41:54;53.65;;;22.40;;
26512;SDS011;14186;53.822;10.152;2022-11-15T07:46:54;58.38;;;23.95;;
26512;SDS011;14186;53.822;10.152;2022-11-15T07:51:56;46.13;;;22.48;;
26512;SDS011;14186;53.822;10.152;2022-11-15T07:56:56;45.08;;;23.42;;
26512;SDS011;14186;53.822;10.152;2022-11-15T08:01:56;43.15;;;21.20;;
26512;SDS011;14186;53.822;10.152;2022-11-15T08:06:58;41.30;;;20.02;;
26512;SDS011;14186;53.822;10.152;2022-11-15T08:11:58;40.90;;;20.65;;
26512;SDS011;14186;53.822;10.152;2022-11-15T08:16:58;40.03;;;19.98;;
26512;SDS011;14186;53.822;10.152;2022-11-15T08:22:00;39.63;;;19.85;;
26512;SDS011;14186;53.822;10.152;2022-11-15T08:27:00;39.47;;;18.35;;
26512;SDS011;14186;53.822;10.152;2022-11-15T08:32:00;37.08;;;19.85;;
26512;SDS011;14186;53.822;10.152;2022-11-15T08:37:01;34.42;;;18.70;;
26512;SDS011;14186;53.822;10.152;2022-11-15T08:42:02;35.92;;;18.73;;
26512;SDS011;14186;53.822;10.152;2022-11-15T08:47:02;32.42;;;17.40;;
26512;SDS011;14186;53.822;10.152;2022-11-15T08:52:03;32.65;;;17.85;;
26512;SDS011;14186;53.822;10.152;2022-11-15T08:57:04;32.35;;;17.30;;
26512;SDS011;14186;53.822;10.152;2022-11-15T09:02:04;34.53;;;17.83;;
26512;SDS011;14186;53.822;10.152;2022-11-15T09:07:05;31.27;;;17.58;;
26512;SDS011;14186;53.822;10.152;2022-11-15T09:12:06;34.88;;;17.27;;
26512;SDS011;14186;53.822;10.152;2022-11-15T09:17:06;27.70;;;16.63;;
26512;SDS011;14186;53.822;10.152;2022-11-15T09:22:08;30.27;;;16.17;;
26512;SDS011;14186;53.822;10.152;2022-11-15T09:27:08;26.85;;;15.30;;
26512;SDS011;14186;53.822;10.152;2022-11-15T09:32:09;26.67;;;15.20;;
26512;SDS011;14186;53.822;10.152;2022-11-15T09:37:10;25.38;;;14.55;;
26512;SDS011;14186;53.822;10.152;2022-11-15T09:42:20;25.98;;;14.23;;
26512;SDS011;14186;53.822;10.152;2022-11-15T09:47:36;24.75;;;14.10;;
26512;SDS011;14186;53.822;10.152;2022-11-15T09:52:41;27.20;;;14.65;;
26512;SDS011;14186;53.822;10.152;2022-11-15T09:57:44;23.42;;;13.02;;
26512;SDS011;14186;53.822;10.152;2022-11-15T10:08:12;20.85;;;12.05;;
26512;SDS011;14186;53.822;10.152;2022-11-15T10:13:13;20.70;;;12.07;;
26512;SDS011;14186;53.822;10.152;2022-11-15T10:18:16;20.25;;;12.23;;
26512;SDS011;14186;53.822;10.152;2022-11-15T10:23:19;21.52;;;12.70;;
26512;SDS011;14186;53.822;10.152;2022-11-15T10:28:21;23.42;;;13.98;;
26512;SDS011;14186;53.822;10.152;2022-11-15T10:33:24;22.60;;;12.48;;
26512;SDS011;14186;53.822;10.152;2022-11-15T10:38:26;25.38;;;12.77;;
26512;SDS011;14186;53.822;10.152;2022-11-15T10:43:26;22.75;;;12.85;;
26512;SDS011;14186;53.822;10.152;2022-11-15T10:48:26;23.45;;;13.38;;
26512;SDS011;14186;53.822;10.152;2022-11-15T10:53:29;21.33;;;12.88;;
26512;SDS011;14186;53.822;10.152;2022-11-15T10:58:34;23.45;;;13.52;;
26512;SDS011;14186;53.822;10.152;2022-11-15T11:03:36;24.25;;;13.32;;
26512;SDS011;14186;53.822;10.152;2022-11-15T11:08:38;20.42;;;12.43;;
26512;SDS011;14186;53.822;10.152;2022-11-15T11:13:39;22.40;;;12.15;;
26512;SDS011;14186;53.822;10.152;2022-11-15T11:18:42;20.42;;;11.48;;
26512;SDS011;14186;53.822;10.152;2022-11-15T11:23:47;29.27;;;17.25;;
26512;SDS011;14186;53.822;10.152;2022-11-15T11:28:53;18.80;;;10.90;;
26512;SDS011;14186;53.822;10.152;2022-11-15T11:33:57;19.95;;;10.68;;
26512;SDS011;14186;53.822;10.152;2022-11-15T11:39:06;19.75;;;11.45;;
26512;SDS011;14186;53.822;10.152;2022-11-15T11:44:23;21.85;;;12.50;;
26512;SDS011;14186;53.822;10.152;2022-11-15T11:49:26;19.30;;;12.15;;
26512;SDS011;14186;53.822;10.152;2022-11-15T11:54:31;19.42;;;11.23;;
26512;SDS011;14186;53.822;10.152;2022-11-15T11:59:34;19.33;;;11.30;;
26512;SDS011;14186;53.822;10.152;2022-11-15T12:04:36;18.23;;;10.27;;
26512;SDS011;14186;53.822;10.152;2022-11-15T12:09:41;18.13;;;10.63;;
26512;SDS011;14186;53.822;10.152;2022-11-15T12:14:44;23.27;;;11.03;;
26512;SDS011;14186;53.822;10.152;2022-11-15T12:19:45;19.30;;;10.55;;
26512;SDS011;14186;53.822;10.152;2022-11-15T12:24:48;18.58;;;10.98;;
26512;SDS011;14186;53.822;10.152;2022-11-15T12:29:50;17.60;;;9.90;;
26512;SDS011;14186;53.822;10.152;2022-11-15T12:34:52;16.95;;;9.82;;
26512;SDS011;14186;53.822;10.152;2022-11-15T12:40:05;18.27;;;10.93;;
26512;SDS011;14186;53.822;10.152;2022-11-15T12:45:24;16.63;;;10.45;;
26512;SDS011;14186;53.822;10.152;2022-11-15T12:55:45;16.08;;;10.15;;
26512;SDS011;14186;53.822;10.152;2022-11-15T13:01:06;20.65;;;10.02;;
26512;SDS011;14186;53.822;10.152;2022-11-15T13:06:07;17.05;;;10.60;;
26512;SDS011;14186;53.822;10.152;2022-11-15T13:16:28;17.13;;;9.65;;
26512;SDS011;14186;53.822;10.152;2022-11-15T13:21:28;18.65;;;11.80;;
26512;SDS011;14186;53.822;10.152;2022-11-15T13:26:28;16.35;;;9.82;;
26512;SDS011;14186;53.822;10.152;2022-11-15T13:31:34;13.90;;;9.27;;
26512;SDS011;14186;53.822;10.152;2022-11-15T13:36:35;17.30;;;10.65;;
26512;SDS011;14186;53.822;10.152;2022-11-15T13:41:36;17.98;;;10.73;;
26512;SDS011;14186;53.822;10.152;2022-11-15T13:46:37;17.17;;;10.30;;
26512;SDS011;14186;53.822;10.152;2022-11-15T13:51:39;17.45;;;8.95;;
26512;SDS011;14186;53.822;10.152;2022-11-15T13:56:40;14.73;;;8.95;;
26512;SDS011;14186;53.822;10.152;2022-11-15T14:01:43;16.77;;;9.55;;
26512;SDS011;14186;53.822;10.152;2022-11-15T14:06:44;18.52;;;10.85;;
26512;SDS011;14186;53.822;10.152;2022-11-15T14:11:52;14.95;;;8.90;;
26512;SDS011;14186;53.822;10.152;2022-11-15T14:16:54;15.82;;;8.75;;
26512;SDS011;14186;53.822;10.152;2022-11-15T14:22:08;16.65;;;9.90;;
26512;SDS011;14186;53.822;10.152;2022-11-15T14:27:18;17.40;;;9.75;;
26512;SDS011;14186;53.822;10.152;2022-11-15T14:32:20;17.25;;;9.13;;
26512;SDS011;14186;53.822;10.152;2022-11-15T14:37:22;16.25;;;9.80;;
26512;SDS011;14186;53.822;10.152;2022-11-15T14:42:23;16.60;;;10.60;;
26512;SDS011;14186;53.822;10.152;2022-11-15T14:47:24;13.60;;;9.15;;
26512;SDS011;14186;53.822;10.152;2022-11-15T14:52:26;15.90;;;9.50;;
26512;SDS011;14186;53.822;10.152;2022-11-15T14:57:26;23.98;;;12.88;;
26512;SDS011;14186;53.822;10.152;2022-11-15T15:02:28;19.55;;;10.98;;
26512;SDS011;14186;53.822;10.152;2022-11-15T15:07:28;16.88;;;9.85;;
26512;SDS011;14186;53.822;10.152;2022-11-15T15:12:28;16.90;;;9.27;;
26512;SDS011;14186;53.822;10.152;2022-11-15T15:17:30;22.38;;;15.02;;
26512;SDS011;14186;53.822;10.152;2022-11-15T15:22:30;25.30;;;13.88;;
26512;SDS011;14186;53.822;10.152;2022-11-15T15:27:30;24.38;;;13.88;;
26512;SDS011;14186;53.822;10.152;2022-11-15T15:32:32;17.92;;;10.27;;
26512;SDS011;14186;53.822;10.152;2022-11-15T15:37:32;17.45;;;10.63;;
26512;SDS011;14186;53.822;10.152;2022-11-15T15:42:33;16.92;;;9.65;;
26512;SDS011;14186;53.822;10.152;2022-11-15T15:47:35;20.50;;;11.55;;
26512;SDS011;14186;53.822;10.152;2022-11-15T15:52:35;25.27;;;14.75;;
26512;SDS011;14186;53.822;10.152;2022-11-15T15:57:35;22.98;;;13.40;;
26512;SDS011;14186;53.822;10.152;2022-11-15T16:02:37;22.55;;;13.52;;
26512;SDS011;14186;53.822;10.152;2022-11-15T16:07:37;22.38;;;12.32;;
26512;SDS011;14186;53.822;10.152;2022-11-15T16:12:38;22.33;;;13.20;;
26512;SDS011;14186;53.822;10.152;2022-11-15T16:17:40;23.30;;;13.98;;
26512;SDS011;14186;53.822;10.152;2022-11-15T16:22:40;21.98;;;11.13;;
26512;SDS011;14186;53.822;10.152;2022-11-15T16:27:42;22.23;;;11.13;;
26512;SDS011;14186;53.822;10.152;2022-11-15T16:32:43;23.63;;;12.75;;
26512;SDS011;14186;53.822;10.152;2022-11-15T16:37:43;20.77;;;11.48;;
26512;SDS011;14186;53.822;10.152;2022-11-15T16:42:44;17.70;;;9.68;;
26512;SDS011;14186;53.822;10.152;2022-11-15T16:47:45;15.07;;;8.63;;
26512;SDS011;14186;53.822;10.152;2022-11-15T16:52:45;17.73;;;9.48;;
26512;SDS011;14186;53.822;10.152;2022-11-15T16:57:46;18.17;;;10.18;;
26512;SDS011;14186;53.822;10.152;2022-11-15T17:02:48;19.40;;;10.65;;
26512;SDS011;14186;53.822;10.152;2022-11-15T17:07:49;18.83;;;10.15;;
26512;SDS011;14186;53.822;10.152;2022-11-15T17:12:49;19.98;;;11.13;;
26512;SDS011;14186;53.822;10.152;2022-11-15T17:17:51;20.23;;;12.23;;
26512;SDS011;14186;53.822;10.152;2022-11-15T17:22:52;19.55;;;11.07;;
26512;SDS011;14186;53.822;10.152;2022-11-15T17:27:52;21.13;;;13.48;;
26512;SDS011;14186;53.822;10.152;2022-11-15T17:32:54;16.58;;;11.18;;
26512;SDS011;14186;53.822;10.152;2022-11-15T17:37:54;19.23;;;11.30;;
26512;SDS011;14186;53.822;10.152;2022-11-15T17:42:54;20.70;;;11.05;;
26512;SDS011;14186;53.822;10.152;2022-11-15T17:47:55;23.67;;;12.90;;
26512;SDS011;14186;53.822;10.152;2022-11-15T17:52:57;18.10;;;10.70;;
26512;SDS011;14186;53.822;10.152;2022-11-15T17:57:57;19.52;;;11.18;;
26512;SDS011;14186;53.822;10.152;2022-11-15T18:02:59;20.70;;;11.32;;
26512;SDS011;14186;53.822;10.152;2022-11-15T18:07:59;19.67;;;11.25;;
26512;SDS011;14186;53.822;10.152;2022-11-15T18:12:59;18.92;;;11.18;;
26512;SDS011;14186;53.822;10.152;2022-11-15T18:18:01;19.02;;;10.68;;
26512;SDS011;14186;53.822;10.152;2022-11-15T18:23:01;21.15;;;11.10;;
26512;SDS011;14186;53.822;10.152;2022-11-15T18:28:01;20.80;;;11.25;;
26512;SDS011;14186;53.822;10.152;2022-11-15T18:33:03;19.98;;;11.48;;
26512;SDS011;14186;53.822;10.152;2022-11-15T18:38:03;20.02;;;11.45;;
26512;SDS011;14186;53.822;10.152;2022-11-15T18:43:03;18.40;;;11.25;;
26512;SDS011;14186;53.822;10.152;2022-11-15T18:48:05;19.85;;;11.15;;
26512;SDS011;14186;53.822;10.152;2022-11-15T18:53:05;20.27;;;11.52;;
26512;SDS011;14186;53.822;10.152;2022-11-15T18:58:05;20.42;;;12.43;;
26512;SDS011;14186;53.822;10.152;2022-11-15T19:03:07;20.70;;;12.15;;
26512;SDS011;14186;53.822;10.152;2022-11-15T19:08:07;20.48;;;11.38;;
26512;SDS011;14186;53.822;10.152;2022-11-15T19:13:07;21.20;;;12.30;;
26512;SDS011;14186;53.822;10.152;2022-11-15T19:18:08;17.58;;;10.65;;
26512;SDS011;14186;53.822;10.152;2022-11-15T19:23:09;21.67;;;11.95;;
26512;SDS011;14186;53.822;10.152;2022-11-15T19:28:09;21.40;;;12.43;;
26512;SDS011;14186;53.822;10.152;2022-11-15T19:33:10;21.13;;;11.00;;
26512;SDS011;14186;53.822;10.152;2022-11-15T19:38:10;20.25;;;11.90;;
26512;SDS011;14186;53.822;10.152;2022-11-15T19:43:11;21.63;;;13.27;;
26512;SDS011;14186;53.822;10.152;2022-11-15T19:48:13;19.35;;;11.18;;
26512;SDS011;14186;53.822;10.152;2022-11-15T19:53:13;20.08;;;11.82;;
26512;SDS011;14186;53.822;10.152;2022-11-15T19:58:14;23.50;;;12.82;;
26512;SDS011;14186;53.822;10.152;2022-11-15T20:03:15;24.13;;;13.40;;
26512;SDS011;14186;53.822;10.152;2022-11-15T20:08:15;23.20;;;13.07;;
26512;SDS011;14186;53.822;10.152;2022-11-15T20:13:16;24.13;;;13.13;;
26512;SDS011;14186;53.822;10.152;2022-11-15T20:18:17;22.52;;;13.57;;
26512;SDS011;14186;53.822;10.152;2022-11-15T20:23:18;25.35;;;14.52;;
26512;SDS011;14186;53.822;10.152;2022-11-15T20:28:19;24.63;;;13.73;;
26512;SDS011;14186;53.822;10.152;2022-11-15T20:33:21;23.65;;;14.10;;
26512;SDS011;14186;53.822;10.152;2022-11-15T20:38:21;25.35;;;14.45;;
26512;SDS011;14186;53.822;10.152;2022-11-15T20:43:21;25.42;;;15.82;;
26512;SDS011;14186;53.822;10.152;2022-11-15T20:48:23;29.88;;;15.57;;
26512;SDS011;14186;53.822;10.152;2022-11-15T20:53:23;28.95;;;15.50;;
26512;SDS011;14186;53.822;10.152;2022-11-15T20:58:23;27.08;;;14.85;;
26512;SDS011;14186;53.822;10.152;2022-11-15T21:03:25;30.10;;;14.65;;
26512;SDS011;14186;53.822;10.152;2022-11-15T21:08:25;25.52;;;14.75;;
26512;SDS011;14186;53.822;10.152;2022-11-15T21:13:25;26.80;;;14.15;;
26512;SDS011;14186;53.822;10.152;2022-11-15T21:18:27;24.10;;;14.20;;
26512;SDS011;14186;53.822;10.152;2022-11-15T21:23:27;26.35;;;14.55;;
26512;SDS011;14186;53.822;10.152;2022-11-15T21:28:27;25.73;;;14.85;;
26512;SDS011;14186;53.822;10.152;2022-11-15T21:33:29;26.85;;;15.07;;
26512;SDS011;14186;53.822;10.152;2022-11-15T21:38:29;25.95;;;16.20;;
26512;SDS011;14186;53.822;10.152;2022-11-15T21:43:29;26.10;;;14.57;;
26512;SDS011;14186;53.822;10.152;2022-11-15T21:48:32;24.95;;;14.25;;
26512;SDS011;14186;53.822;10.152;2022-11-15T21:53:33;25.52;;;15.55;;
26512;SDS011;14186;53.822;10.152;2022-11-15T21:58:33;25.92;;;14.63;;
26512;SDS011;14186;53.822;10.152;2022-11-15T22:03:35;26.23;;;15.50;;
26512;SDS011;14186;53.822;10.152;2022-11-15T22:08:35;26.90;;;14.88;;
26512;SDS011;14186;53.822;10.152;2022-11-15T22:13:35;27.42;;;15.60;;
26512;SDS011;14186;53.822;10.152;2022-11-15T22:18:37;32.72;;;16.52;;
26512;SDS011;14186;53.822;10.152;2022-11-15T22:23:37;28.88;;;16.45;;
26512;SDS011;14186;53.822;10.152;2022-11-15T22:28:37;30.17;;;16.25;;
26512;SDS011;14186;53.822;10.152;2022-11-15T22:33:39;28.05;;;15.63;;
26512;SDS011;14186;53.822;10.152;2022-11-15T22:38:39;30.30;;;17.48;;
26512;SDS011;14186;53.822;10.152;2022-11-15T22:43:39;29.95;;;16.25;;
26512;SDS011;14186;53.822;10.152;2022-11-15T22:48:41;33.08;;;18.27;;
26512;SDS011;14186;53.822;10.152;2022-11-15T22:53:42;32.30;;;17.65;;
26512;SDS011;14186;53.822;10.152;2022-11-15T22:58:42;38.00;;;19.50;;
26512;SDS011;14186;53.822;10.152;2022-11-15T23:03:43;34.92;;;19.63;;
26512;SDS011;14186;53.822;10.152;2022-11-15T23:08:44;36.95;;;19.38;;
26512;SDS011;14186;53.822;10.152;2022-11-15T23:13:44;38.67;;;19.95;;
26512;SDS011;14186;53.822;10.152;2022-11-15T23:18:45;38.35;;;19.52;;
26512;SDS011;14186;53.822;10.152;2022-11-15T23:23:46;37.10;;;19.08;;
26512;SDS011;14186;53.822;10.152;2022-11-15T23:28:46;35.72;;;19.40;;
26512;SDS011;14186;53.822;10.152;2022-11-15T23:33:47;33.33;;;17.80;;
26512;SDS011;14186;53.822;10.152;2022-11-15T23:38:48;33.35;;;19.48;;
26512;SDS011;14186;53.822;10.152;2022-11-15T23:43:48;33.15;;;17.50;;
26512;SDS011;14186;53.822;10.152;2022-11-15T23:48:49;34.60;;;18.75;;
26512;SDS011;14186;53.822;10.152;2022-11-15T23:53:50;35.58;;;18.48;;
26512;SDS011;14186;53.822;10.152;2022-11-15T23:58:50;41.00;;;18.92;;
